Amboy, CA

4:14 PM PDT on May 20, 2019 (GMT -0700)
Twentynine Palms Expeditionary Air Field | | Change Station
Active Advisory: High Wind Warning

Elev 2054 ft 34.28 °N, 116.17 °W | Updated 18 minutes ago

Clear
Clear
74 °F
Feels Like 74 °F
N
22
Wind Variable Wind from WNW
Gusts 30 mph

Today
High -- | Low -- °F
--% Chance of Precip.
Yesterday
High -- | Low -- °F
Precip. -- in
Pressure 29.77 in
Visibility 10.0 miles
Clouds Clear
Dew Point 25 °F
Humidity 16%
Rainfall 0.00 in
Snow Depth Not available.
5:37 AM 7:42 PM
Waning Gibbous, 95% visible
METAR KNXP 202256Z AUTO 30019G26KT 10SM CLR 23/M04 A2985 RMK AO2 PK WND 30026/2255 SLP081 T02331039
Pressure 29.77 in
Visibility 10.0 miles
Clouds Clear
Dew Point 25 °F
Humidity 16%
Rainfall 0.00 in
Snow Depth Not available.
5:37 AM 7:42 PM
Waning Gibbous, 95% visible
METAR KNXP 202256Z AUTO 30019G26KT 10SM CLR 23/M04 A2985 RMK AO2 PK WND 30026/2255 SLP081 T02331039

Get Your Daily Forecast Email!

Thanks for signing up!

Be on the lookout for a verification email in your inbox.

You'll start receiving severe weather alerts in your inbox..

×

10-Day Weather Forecast

Almanac

Astronomy

May. 20, 2019 Rise Set
Actual Time
Civil Twilight
Nautical Twilight
Astronomical Twilight
Moon
Length of Visible Light
Length of Day
Tomorrow will be .
, % of the Moon is Illuminated

Today's Extremes

State Highs State Lows

Community

WunderPhotos

Category 6

Welcome to Category 6. This is the collective home for Weather Underground's featured writeups by Dr. Jeff Masters (right), Bob Henson (left), Chris Burt, and other regular contributors.

Nearby

Air Quality

  Air Quality AQ Index Pollutant
Not available.

Snow Depth

Station Depth Elevation

Earthquake Activity

City Distance Mag. Time & Date
Minimum magnitude displayed is 2.5.

Coastal Water Temperatures

Place Temperature

Stations

Nearby Weather Stations

Station Location Temp. Windchill Dew Point Humidity Wind Precip. Elev Updated Type
                   

Watches & Warnings

High Wind Warning
Issued: 2:16 PM PDT May. 20, 2019 – National Weather Service

... High Wind Warning in effect from 10 am to 10 PM PDT Tuesday...

The National Weather Service in Las Vegas has issued a High Wind
Warning, which is in effect from 10 am to 10 PM PDT Tuesday.

* Winds... west winds gusting 50 to 60 mph.

* Timing... potentially damaging winds are expected to develop
across the parts of the eastern Mojave Desert of San Bernardino
County and the morongo basin late Tuesday morning through
Tuesday evening before gradually decreasing.

* Impacts... a High Wind Warning means a hazardous high wind event
is expected. High winds can make driving dangerous... rapidly
reduce visibility in dust prone areas and lead to property
damage. Loose objects such as trash cans may be blown away.

Precautionary/preparedness actions...

Motorcycle riders and drivers of vans... campers... trailers and
any other high profile vehicle should be alert to the danger of
these winds.